Time;durP1;ratioP1;P1;durP2;ratioP2;P2;SDS_P1;SDS_P2;PMS_P1;PMS_P2;Temp;Humidity;BMP_temperature;BMP_pressure;BME280_temperature;BME280_humidity;BME280_pressure;Samples;Min_cycle;Max_cycle;Signal;HPM_P1;HPM_P2
2022/06/18 00:00:14;;;;;;;7.70;3.90;;;;;;;;;;5032684;28;20036;-44
2022/06/18 00:02:41;;;;;;;5.03;3.13;;;;;;;;;;5033810;28;20124;-44
2022/06/18 00:05:08;;;;;;;4.60;3.38;;;;;;;;;;5032645;28;20468;-44
2022/06/18 00:07:40;;;;;;;6.80;3.13;;;;;;;;;;5038188;28;20030;-45
2022/06/18 00:10:11;;;;;;;11.57;3.45;;;;;;;;;;5033498;28;20053;-44
2022/06/18 00:15:27;;;;;;;9.32;4.03;;;;;;;;;;5031490;28;20056;-46
2022/06/18 00:17:53;;;;;;;6.95;3.20;;;;;;;;;;5030481;28;20029;-44
2022/06/18 00:20:22;;;;;;;9.68;3.70;;;;;;;;;;5038824;28;20029;-45
2022/06/18 00:22:53;;;;;;;7.68;3.75;;;;;;;;;;5035075;28;20046;-46
2022/06/18 00:25:31;;;;;;;5.53;3.38;;;;;;;;;;5034944;28;20036;-48
2022/06/18 00:27:59;;;;;;;5.90;3.80;;;;;;;;;;5031412;28;20041;-45
2022/06/18 00:30:27;;;;;;;8.00;4.35;;;;;;;;;;5031264;28;20104;-47
2022/06/18 00:32:52;;;;;;;5.32;3.30;;;;;;;;;;5034047;28;20111;-45
2022/06/18 00:35:18;;;;;;;9.55;3.47;;;;;;;;;;5028622;28;20156;-46
2022/06/18 00:37:45;;;;;;;11.57;3.03;;;;;;;;;;5034705;28;20017;-44
2022/06/18 00:40:41;;;;;;;14.25;3.78;;;;;;;;;;5028945;28;20025;-46
2022/06/18 00:43:14;;;;;;;7.35;3.33;;;;;;;;;;5033884;28;20041;-45
2022/06/18 00:45:40;;;;;;;11.45;3.78;;;;;;;;;;5030322;28;20428;-47
2022/06/18 00:48:18;;;;;;;9.35;3.65;;;;;;;;;;5030676;28;20037;-44
2022/06/18 00:50:54;;;;;;;10.45;3.60;;;;;;;;;;5029789;28;20033;-45
2022/06/18 00:53:21;;;;;;;4.95;3.50;;;;;;;;;;5032244;28;20040;-44
2022/06/18 00:55:57;;;;;;;4.15;3.08;;;;;;;;;;5040176;28;20033;-46
2022/06/18 00:58:37;;;;;;;5.78;3.67;;;;;;;;;;5031603;28;20028;-44
2022/06/18 01:01:12;;;;;;;9.52;3.85;;;;;;;;;;5029583;28;20032;-44
2022/06/18 01:03:38;;;;;;;5.28;3.70;;;;;;;;;;5023759;28;20120;-46
2022/06/18 01:06:16;;;;;;;4.95;3.28;;;;;;;;;;5029070;28;21881;-44
2022/06/18 01:08:43;;;;;;;7.78;3.88;;;;;;;;;;5028562;28;20030;-44
2022/06/18 01:11:16;;;;;;;5.53;3.83;;;;;;;;;;5031832;28;20026;-44
2022/06/18 01:13:42;;;;;;;10.18;3.72;;;;;;;;;;5035676;28;20057;-44
2022/06/18 01:16:09;;;;;;;4.90;3.60;;;;;;;;;;5027692;28;20052;-44
2022/06/18 01:18:38;;;;;;;7.18;3.70;;;;;;;;;;5026102;28;20032;-45
2022/06/18 01:21:40;;;;;;;5.85;3.75;;;;;;;;;;5028819;28;20029;-44
2022/06/18 01:24:17;;;;;;;7.50;4.20;;;;;;;;;;5032377;28;20155;-44
2022/06/18 01:26:46;;;;;;;5.55;3.83;;;;;;;;;;5030202;28;20029;-45
2022/06/18 01:29:12;;;;;;;11.55;4.20;;;;;;;;;;5029056;28;20033;-44
2022/06/18 01:31:38;;;;;;;6.47;3.67;;;;;;;;;;5036061;28;20032;-44
2022/06/18 01:34:05;;;;;;;6.50;3.78;;;;;;;;;;5024980;28;20033;-44
2022/06/18 01:36:33;;;;;;;6.15;3.75;;;;;;;;;;5035315;28;20394;-45
2022/06/18 01:39:02;;;;;;;8.55;3.90;;;;;;;;;;5028617;28;20144;-43
2022/06/18 01:41:50;;;;;;;7.45;3.90;;;;;;;;;;5034805;28;20379;-47
2022/06/18 01:44:31;;;;;;;6.57;3.75;;;;;;;;;;5034837;28;25347;-44
2022/06/18 01:47:03;;;;;;;9.80;4.20;;;;;;;;;;5029069;28;20104;-44
2022/06/18 01:49:36;;;;;;;5.95;4.07;;;;;;;;;;5033517;28;20477;-45
2022/06/18 01:52:05;;;;;;;8.40;4.32;;;;;;;;;;5026100;28;20055;-44
2022/06/18 01:54:52;;;;;;;7.32;4.20;;;;;;;;;;5033580;28;20072;-46
2022/06/18 01:57:23;;;;;;;15.60;4.68;;;;;;;;;;5028439;28;20033;-44
2022/06/18 01:59:54;;;;;;;8.18;4.78;;;;;;;;;;5029823;28;20387;-44
2022/06/18 02:02:20;;;;;;;8.30;3.87;;;;;;;;;;5034818;28;20486;-44
2022/06/18 02:04:47;;;;;;;7.45;3.70;;;;;;;;;;5031674;28;20554;-44
2022/06/18 02:07:15;;;;;;;9.73;3.80;;;;;;;;;;5027737;28;20119;-43
2022/06/18 02:10:03;;;;;;;10.07;4.30;;;;;;;;;;5030398;28;20413;-44
2022/06/18 02:12:34;;;;;;;8.05;4.00;;;;;;;;;;5027150;28;20386;-43
2022/06/18 02:15:03;;;;;;;9.93;3.75;;;;;;;;;;5029594;28;20063;-44
2022/06/18 02:17:30;;;;;;;7.63;4.00;;;;;;;;;;5027711;28;20076;-43
2022/06/18 02:20:02;;;;;;;9.48;3.97;;;;;;;;;;5034518;28;20040;-44
2022/06/18 02:22:34;;;;;;;6.20;4.00;;;;;;;;;;5034222;28;20057;-44
2022/06/18 02:25:00;;;;;;;7.18;3.67;;;;;;;;;;5022921;28;20516;-44
2022/06/18 02:27:25;;;;;;;7.38;3.80;;;;;;;;;;5030888;28;20041;-44
2022/06/18 02:29:53;;;;;;;9.35;3.83;;;;;;;;;;5033416;28;20042;-44
2022/06/18 02:33:04;;;;;;;9.60;4.05;;;;;;;;;;5025763;28;20018;-43
2022/06/18 02:35:34;;;;;;;8.82;4.60;;;;;;;;;;5026368;28;20493;-44
2022/06/18 02:38:03;;;;;;;7.35;4.55;;;;;;;;;;5031081;28;20128;-44
2022/06/18 02:40:30;;;;;;;8.23;4.13;;;;;;;;;;5033131;28;20032;-44
2022/06/18 02:42:59;;;;;;;10.35;4.25;;;;;;;;;;5028581;28;20084;-47
2022/06/18 02:45:27;;;;;;;9.82;4.43;;;;;;;;;;5025649;28;20060;-45
2022/06/18 02:47:56;;;;;;;7.30;4.32;;;;;;;;;;5025163;28;20033;-44
2022/06/18 02:50:25;;;;;;;15.32;4.93;;;;;;;;;;5029668;28;20025;-44
2022/06/18 02:52:57;;;;;;;16.58;4.63;;;;;;;;;;5030048;28;20124;-44
2022/06/18 02:55:36;;;;;;;10.38;4.93;;;;;;;;;;5024761;28;20040;-44
2022/06/18 02:58:11;;;;;;;6.28;4.50;;;;;;;;;;5024652;28;20486;-44
2022/06/18 03:00:39;;;;;;;7.18;4.78;;;;;;;;;;5026158;28;20402;-45
2022/06/18 03:03:09;;;;;;;9.43;4.47;;;;;;;;;;5025859;28;20040;-44
2022/06/18 03:05:34;;;;;;;7.97;4.72;;;;;;;;;;5025417;28;20613;-43
2022/06/18 03:08:00;;;;;;;11.13;4.70;;;;;;;;;;5028180;28;20120;-43
2022/06/18 03:13:11;;;;;;;9.55;4.20;;;;;;;;;;5023460;28;20110;-44
2022/06/18 03:15:37;;;;;;;6.78;4.45;;;;;;;;;;5029899;28;20473;-43
2022/06/18 03:18:03;;;;;;;10.88;4.82;;;;;;;;;;5033164;28;20029;-44
2022/06/18 03:21:00;;;;;;;5.05;4.38;;;;;;;;;;5024467;28;20033;-43
2022/06/18 03:23:26;;;;;;;9.68;4.80;;;;;;;;;;5032146;28;20040;-44
2022/06/18 03:25:53;;;;;;;11.75;4.72;;;;;;;;;;5034619;28;20040;-44
2022/06/18 03:28:21;;;;;;;6.22;4.28;;;;;;;;;;5032458;28;20041;-43
2022/06/18 03:30:47;;;;;;;6.35;4.80;;;;;;;;;;5030835;28;20029;-44
2022/06/18 03:33:13;;;;;;;7.57;4.93;;;;;;;;;;5031870;28;20076;-44
2022/06/18 03:35:41;;;;;;;11.00;4.60;;;;;;;;;;5034311;28;20029;-44
2022/06/18 03:38:07;;;;;;;8.38;4.60;;;;;;;;;;5037455;28;20036;-48
2022/06/18 03:40:32;;;;;;;4.97;4.43;;;;;;;;;;5030561;28;20029;-44
2022/06/18 03:42:58;;;;;;;8.15;4.80;;;;;;;;;;5030458;28;20188;-42
2022/06/18 03:45:24;;;;;;;9.75;4.38;;;;;;;;;;5034542;28;20033;-45
2022/06/18 03:47:50;;;;;;;12.05;5.15;;;;;;;;;;5028745;28;20029;-44
2022/06/18 03:50:18;;;;;;;8.77;4.55;;;;;;;;;;5030331;28;20061;-43
2022/06/18 03:52:44;;;;;;;6.80;5.13;;;;;;;;;;5037396;28;20031;-44
2022/06/18 03:55:13;;;;;;;16.98;4.85;;;;;;;;;;5036364;28;20045;-43
2022/06/18 03:57:39;;;;;;;6.93;4.82;;;;;;;;;;5030135;28;20025;-44
2022/06/18 04:00:16;;;;;;;14.88;4.68;;;;;;;;;;5033389;28;20029;-43
2022/06/18 04:02:42;;;;;;;6.28;4.68;;;;;;;;;;5033286;28;20559;-44
2022/06/18 04:05:08;;;;;;;9.63;4.82;;;;;;;;;;5031986;28;20065;-44
2022/06/18 04:07:35;;;;;;;11.48;4.95;;;;;;;;;;5034671;28;20026;-43
2022/06/18 04:10:01;;;;;;;7.47;4.95;;;;;;;;;;5029176;28;20033;-43
2022/06/18 04:12:29;;;;;;;7.35;5.07;;;;;;;;;;5031769;28;20032;-44
2022/06/18 04:14:56;;;;;;;10.90;4.68;;;;;;;;;;5034206;28;20044;-44
2022/06/18 04:17:21;;;;;;;12.10;4.97;;;;;;;;;;5034692;28;20497;-43
2022/06/18 04:19:47;;;;;;;10.05;5.40;;;;;;;;;;5034936;28;20481;-43
2022/06/18 04:22:13;;;;;;;10.00;5.68;;;;;;;;;;5032616;28;20036;-45
2022/06/18 04:24:39;;;;;;;10.13;5.63;;;;;;;;;;5037609;28;20796;-44
2022/06/18 04:27:05;;;;;;;6.93;5.10;;;;;;;;;;5031677;28;20236;-44
2022/06/18 04:29:32;;;;;;;10.27;4.85;;;;;;;;;;5036045;28;20036;-44
2022/06/18 04:31:59;;;;;;;6.43;5.10;;;;;;;;;;5037426;28;20120;-43
2022/06/18 04:34:25;;;;;;;12.10;5.45;;;;;;;;;;5036958;28;20075;-43
2022/06/18 04:36:51;;;;;;;5.82;5.15;;;;;;;;;;5025416;28;20033;-44
2022/06/18 04:39:17;;;;;;;8.20;4.80;;;;;;;;;;5033211;28;20037;-47
2022/06/18 04:41:43;;;;;;;10.90;5.10;;;;;;;;;;5032640;28;20037;-43
2022/06/18 04:44:09;;;;;;;9.90;5.25;;;;;;;;;;5032138;28;20041;-43
2022/06/18 04:46:34;;;;;;;5.97;4.90;;;;;;;;;;5034104;28;20033;-44
2022/06/18 04:49:00;;;;;;;7.80;5.57;;;;;;;;;;5030201;28;20033;-44
2022/06/18 04:51:26;;;;;;;10.48;5.20;;;;;;;;;;5031213;28;20033;-43
2022/06/18 04:53:52;;;;;;;10.88;5.32;;;;;;;;;;5027819;28;20044;-45
2022/06/18 04:56:18;;;;;;;11.00;5.30;;;;;;;;;;5031690;28;20117;-44
2022/06/18 04:58:44;;;;;;;7.07;4.88;;;;;;;;;;5036841;28;20114;-43
2022/06/18 05:01:14;;;;;;;9.75;4.70;;;;;;;;;;5030904;28;20041;-44
2022/06/18 05:03:39;;;;;;;5.53;4.90;;;;;;;;;;5027817;28;20059;-44
2022/06/18 05:06:05;;;;;;;9.80;4.68;;;;;;;;;;5033913;28;20493;-43
2022/06/18 05:08:30;;;;;;;13.70;5.55;;;;;;;;;;5035644;28;20021;-44
2022/06/18 05:10:56;;;;;;;12.02;4.75;;;;;;;;;;5032254;28;20061;-43
2022/06/18 05:13:22;;;;;;;8.05;4.95;;;;;;;;;;5035145;28;20017;-45
2022/06/18 05:15:52;;;;;;;5.95;4.80;;;;;;;;;;5032933;28;20024;-45
2022/06/18 05:18:20;;;;;;;15.00;5.30;;;;;;;;;;5034070;28;20063;-44
2022/06/18 05:20:52;;;;;;;8.88;5.20;;;;;;;;;;5031890;28;20072;-44
2022/06/18 05:23:19;;;;;;;10.65;4.60;;;;;;;;;;5031947;28;20125;-45
2022/06/18 05:25:46;;;;;;;11.35;4.82;;;;;;;;;;5033241;28;20028;-43
2022/06/18 05:28:13;;;;;;;6.25;4.68;;;;;;;;;;5024549;28;20108;-44
2022/06/18 05:30:39;;;;;;;8.20;4.85;;;;;;;;;;5033218;28;20702;-43
2022/06/18 05:33:06;;;;;;;7.80;5.15;;;;;;;;;;5024157;28;20036;-44
2022/06/18 05:35:35;;;;;;;11.60;4.88;;;;;;;;;;5028442;28;20025;-43
2022/06/18 05:38:01;;;;;;;6.47;4.88;;;;;;;;;;5022180;28;20044;-45
2022/06/18 05:40:27;;;;;;;13.45;4.75;;;;;;;;;;5036559;28;20059;-43
2022/06/18 05:42:54;;;;;;;8.73;4.97;;;;;;;;;;5027987;28;20467;-44
2022/06/18 05:45:21;;;;;;;11.63;5.00;;;;;;;;;;5034020;28;20045;-44
2022/06/18 05:47:47;;;;;;;8.32;4.50;;;;;;;;;;5028377;28;20513;-44
2022/06/18 05:50:16;;;;;;;11.10;4.65;;;;;;;;;;5018066;28;20033;-43
2022/06/18 05:52:42;;;;;;;20.70;4.97;;;;;;;;;;5019547;28;20026;-45
2022/06/18 05:55:09;;;;;;;12.63;4.93;;;;;;;;;;5020615;28;20045;-44
2022/06/18 05:57:44;;;;;;;11.40;4.93;;;;;;;;;;5022243;28;20045;-44
2022/06/18 06:00:13;;;;;;;14.52;5.50;;;;;;;;;;5029577;28;20088;-44
2022/06/18 06:02:39;;;;;;;10.98;5.20;;;;;;;;;;5017322;28;20108;-43
2022/06/18 06:05:05;;;;;;;15.05;4.75;;;;;;;;;;5021042;28;20032;-44
2022/06/18 06:07:31;;;;;;;10.85;5.00;;;;;;;;;;5016183;28;20037;-45
2022/06/18 06:12:41;;;;;;;11.32;4.95;;;;;;;;;;5017702;28;20033;-43
2022/06/18 06:15:07;;;;;;;8.95;4.88;;;;;;;;;;5017745;28;20037;-43
2022/06/18 06:17:34;;;;;;;11.15;4.97;;;;;;;;;;5016109;28;20163;-43
2022/06/18 06:20:03;;;;;;;9.60;4.60;;;;;;;;;;5022049;28;20067;-45
2022/06/18 06:22:29;;;;;;;10.35;5.18;;;;;;;;;;5027580;28;20028;-44
2022/06/18 06:24:55;;;;;;;15.23;4.88;;;;;;;;;;5022156;28;20029;-47
2022/06/18 06:27:20;;;;;;;10.57;4.60;;;;;;;;;;5019769;28;20029;-46
2022/06/18 06:29:46;;;;;;;15.82;5.53;;;;;;;;;;5051308;28;20034;-44
2022/06/18 06:32:12;;;;;;;18.10;5.22;;;;;;;;;;5015276;28;20065;-47
2022/06/18 06:34:38;;;;;;;7.63;4.53;;;;;;;;;;5023287;28;20037;-46
2022/06/18 06:37:04;;;;;;;7.70;5.22;;;;;;;;;;5015189;28;20038;-46
2022/06/18 06:39:30;;;;;;;15.43;6.25;;;;;;;;;;5017896;28;20038;-46
2022/06/18 06:41:56;;;;;;;10.32;4.93;;;;;;;;;;5016007;28;20425;-44
2022/06/18 06:44:21;;;;;;;10.07;5.10;;;;;;;;;;5015205;28;20029;-44
2022/06/18 06:46:47;;;;;;;26.50;4.78;;;;;;;;;;5021730;28;20033;-46
2022/06/18 06:49:13;;;;;;;8.95;4.90;;;;;;;;;;5020611;28;20037;-45
2022/06/18 06:51:39;;;;;;;8.75;4.75;;;;;;;;;;5020715;28;20035;-45
2022/06/18 06:54:08;;;;;;;15.93;4.68;;;;;;;;;;5018807;28;20041;-47
2022/06/18 06:59:19;;;;;;;26.33;5.10;;;;;;;;;;5012210;28;20049;-45
2022/06/18 07:01:45;;;;;;;11.32;4.85;;;;;;;;;;5023637;28;20029;-44
2022/06/18 07:04:12;;;;;;;17.55;4.85;;;;;;;;;;5024475;28;20037;-45
2022/06/18 07:06:38;;;;;;;9.00;4.63;;;;;;;;;;5026908;28;20114;-45
2022/06/18 07:09:05;;;;;;;16.85;4.80;;;;;;;;;;5025805;28;20478;-44
2022/06/18 07:11:31;;;;;;;13.88;4.60;;;;;;;;;;5028351;28;20065;-44
2022/06/18 07:13:57;;;;;;;56.90;7.18;;;;;;;;;;5031758;28;20037;-44
2022/06/18 07:16:23;;;;;;;18.63;5.57;;;;;;;;;;5028753;28;20514;-45
2022/06/18 07:18:50;;;;;;;14.52;4.80;;;;;;;;;;5027370;28;20017;-44
2022/06/18 07:21:16;;;;;;;9.35;4.53;;;;;;;;;;5028010;28;20057;-49
2022/06/18 07:23:43;;;;;;;17.45;5.28;;;;;;;;;;5028410;28;20036;-43
2022/06/18 07:26:12;;;;;;;10.70;4.50;;;;;;;;;;5029713;28;20040;-45
2022/06/18 07:28:38;;;;;;;13.88;4.63;;;;;;;;;;5030791;28;20038;-44
2022/06/18 07:31:04;;;;;;;19.05;5.15;;;;;;;;;;5028686;28;20031;-43
2022/06/18 07:33:33;;;;;;;14.15;5.07;;;;;;;;;;5028203;28;20579;-45
2022/06/18 07:35:59;;;;;;;15.10;5.55;;;;;;;;;;5020409;28;20041;-46
2022/06/18 07:38:25;;;;;;;9.05;4.80;;;;;;;;;;5026016;28;20033;-46
2022/06/18 07:40:53;;;;;;;11.32;4.90;;;;;;;;;;5031157;28;20425;-45
2022/06/18 07:43:24;;;;;;;12.98;5.10;;;;;;;;;;5025198;28;20049;-44
2022/06/18 07:45:50;;;;;;;6.68;4.78;;;;;;;;;;5029936;28;20482;-45
2022/06/18 07:48:16;;;;;;;15.45;4.93;;;;;;;;;;5027055;28;20076;-44
2022/06/18 07:50:46;;;;;;;17.75;5.00;;;;;;;;;;5028018;28;20021;-44
2022/06/18 07:53:23;;;;;;;14.98;5.00;;;;;;;;;;5027704;28;20084;-44
2022/06/18 07:55:50;;;;;;;8.60;5.25;;;;;;;;;;5035010;28;20049;-44
2022/06/18 07:58:16;;;;;;;9.15;5.10;;;;;;;;;;5027245;28;20032;-45
2022/06/18 08:00:42;;;;;;;17.10;5.30;;;;;;;;;;5027582;28;20034;-47
2022/06/18 08:03:10;;;;;;;11.27;5.30;;;;;;;;;;5029432;28;20030;-43
2022/06/18 08:05:36;;;;;;;10.52;4.88;;;;;;;;;;5025211;28;20040;-45
2022/06/18 08:08:02;;;;;;;13.25;5.20;;;;;;;;;;5028668;28;20397;-45
2022/06/18 08:10:28;;;;;;;13.15;5.05;;;;;;;;;;5030856;28;20377;-44
2022/06/18 08:12:54;;;;;;;11.93;4.75;;;;;;;;;;5023807;28;20116;-45
2022/06/18 08:15:20;;;;;;;12.23;5.05;;;;;;;;;;5035131;28;20124;-44
2022/06/18 08:17:46;;;;;;;26.98;5.20;;;;;;;;;;5033436;28;20120;-45
2022/06/18 08:20:11;;;;;;;16.23;5.70;;;;;;;;;;5037227;28;20026;-45
2022/06/18 08:22:43;;;;;;;15.57;5.10;;;;;;;;;;5035933;28;20083;-45
2022/06/18 08:25:11;;;;;;;11.95;5.05;;;;;;;;;;5034402;28;20020;-47
2022/06/18 08:27:37;;;;;;;16.55;5.60;;;;;;;;;;5030330;28;20669;-44
2022/06/18 08:30:05;;;;;;;16.70;4.97;;;;;;;;;;5030417;28;20033;-44
2022/06/18 08:32:31;;;;;;;13.50;5.35;;;;;;;;;;5033630;28;20040;-44
2022/06/18 08:34:56;;;;;;;21.65;5.38;;;;;;;;;;5037579;28;20490;-44
2022/06/18 08:37:23;;;;;;;13.43;4.93;;;;;;;;;;5033077;28;20064;-44
2022/06/18 08:39:49;;;;;;;16.52;5.38;;;;;;;;;;5027974;28;20030;-45
2022/06/18 08:42:18;;;;;;;10.60;4.43;;;;;;;;;;5031015;28;20025;-45
2022/06/18 08:44:52;;;;;;;18.67;4.95;;;;;;;;;;5032572;28;20034;-44
2022/06/18 08:47:24;;;;;;;14.65;4.63;;;;;;;;;;5033009;28;20045;-44
2022/06/18 08:49:55;;;;;;;;;;;;;;;;;;5034456;28;20390;-45
2022/06/18 08:52:41;;;;;;;19.65;5.32;;;;;;;;;;5034967;28;19920;-44
2022/06/18 08:55:47;;;;;;;12.57;4.65;;;;;;;;;;5030112;28;20049;-44
2022/06/18 08:58:34;;;;;;;12.60;4.68;;;;;;;;;;4989948;28;20458;-44
2022/06/18 09:01:07;;;;;;;13.27;4.88;;;;;;;;;;4985767;28;20120;-44
2022/06/18 09:04:01;;;;;;;14.27;5.30;;;;;;;;;;4992009;28;20037;-45
2022/06/18 09:07:04;;;;;;;15.77;5.20;;;;;;;;;;4985186;28;20041;-44
2022/06/18 09:10:06;;;;;;;12.00;4.82;;;;;;;;;;4988945;28;20120;-49
2022/06/18 09:12:53;;;;;;;15.90;4.78;;;;;;;;;;4984640;28;20065;-47
2022/06/18 09:15:28;;;;;;;14.70;5.55;;;;;;;;;;4987905;28;20045;-45
2022/06/18 09:18:04;;;;;;;21.52;5.25;;;;;;;;;;4990784;28;20533;-45
2022/06/18 09:20:35;;;;;;;22.65;5.32;;;;;;;;;;4989992;28;20035;-47
2022/06/18 09:23:20;;;;;;;17.00;5.50;;;;;;;;;;4991124;28;20042;-44
2022/06/18 09:25:50;;;;;;;12.45;4.90;;;;;;;;;;4983532;28;20519;-45
2022/06/18 09:28:25;;;;;;;18.92;5.28;;;;;;;;;;4990719;28;20038;-44
2022/06/18 09:30:58;;;;;;;16.75;5.15;;;;;;;;;;4984089;28;20475;-45
2022/06/18 09:33:34;;;;;;;17.35;5.47;;;;;;;;;;5001090;28;20033;-45
2022/06/18 09:36:05;;;;;;;18.38;5.13;;;;;;;;;;5028501;28;20410;-47
2022/06/18 09:38:35;;;;;;;18.65;5.30;;;;;;;;;;5029227;28;20124;-44
2022/06/18 09:41:09;;;;;;;14.93;4.50;;;;;;;;;;5035601;28;20487;-44
2022/06/18 09:43:57;;;;;;;11.95;5.43;;;;;;;;;;5031527;28;20127;-45
2022/06/18 09:46:26;;;;;;;14.82;5.75;;;;;;;;;;5030541;28;20037;-44
2022/06/18 09:48:53;;;;;;;17.02;4.60;;;;;;;;;;5023811;28;20079;-46
2022/06/18 09:51:32;;;;;;;14.75;5.22;;;;;;;;;;5029017;28;20017;-44
2022/06/18 09:54:03;;;;;;;13.90;5.25;;;;;;;;;;5028032;28;20049;-47
2022/06/18 09:56:49;;;;;;;16.67;5.07;;;;;;;;;;5027499;28;20037;-45
2022/06/18 09:59:19;;;;;;;17.55;5.60;;;;;;;;;;5031778;28;20030;-45
2022/06/18 10:01:49;;;;;;;17.00;4.97;;;;;;;;;;5032581;28;20482;-44
2022/06/18 10:07:08;;;;;;;16.30;4.80;;;;;;;;;;5026853;28;20041;-49
2022/06/18 10:09:41;;;;;;;10.75;4.63;;;;;;;;;;5029465;28;20824;-45
2022/06/18 10:12:30;;;;;;;9.90;5.18;;;;;;;;;;5035627;28;20067;-46
2022/06/18 10:15:00;;;;;;;10.15;5.03;;;;;;;;;;5029544;28;20401;-45
2022/06/18 10:18:12;;;;;;;23.23;4.70;;;;;;;;;;5031842;28;20030;-46
2022/06/18 10:20:43;;;;;;;15.38;4.85;;;;;;;;;;5008447;28;20337;-44
2022/06/18 10:23:11;;;;;;;11.18;5.15;;;;;;;;;;5002799;28;20050;-50
2022/06/18 10:25:45;;;;;;;11.82;4.60;;;;;;;;;;5003779;28;20033;-45
2022/06/18 10:28:20;;;;;;;15.23;4.80;;;;;;;;;;5009468;28;20450;-44
2022/06/18 10:30:55;;;;;;;19.42;5.63;;;;;;;;;;5011647;28;20112;-48
2022/06/18 10:33:27;;;;;;;14.05;5.07;;;;;;;;;;5010557;28;20053;-44
2022/06/18 10:36:15;;;;;;;15.45;4.90;;;;;;;;;;5009870;28;20037;-47
2022/06/18 10:38:59;;;;;;;12.88;4.30;;;;;;;;;;5003287;28;20121;-46
2022/06/18 10:41:45;;;;;;;12.48;5.32;;;;;;;;;;5005524;28;20037;-45
2022/06/18 10:44:23;;;;;;;14.65;4.80;;;;;;;;;;4994579;28;20056;-46
2022/06/18 10:47:05;;;;;;;8.68;3.95;;;;;;;;;;5009154;28;20106;-45
2022/06/18 10:49:31;;;;;;;13.73;4.72;;;;;;;;;;5003625;28;20123;-47
2022/06/18 10:51:59;;;;;;;19.15;4.85;;;;;;;;;;5003838;28;20521;-47
2022/06/18 10:54:30;;;;;;;11.95;4.30;;;;;;;;;;5002981;28;20664;-44
2022/06/18 10:56:58;;;;;;;15.73;5.00;;;;;;;;;;5024858;28;20056;-44
2022/06/18 10:59:42;;;;;;;10.65;4.55;;;;;;;;;;5023808;28;20099;-51
2022/06/18 11:02:12;;;;;;;11.15;4.70;;;;;;;;;;5018674;28;20036;-45
2022/06/18 11:04:39;;;;;;;12.57;4.28;;;;;;;;;;5020469;28;20045;-45
2022/06/18 11:07:07;;;;;;;9.80;4.30;;;;;;;;;;5028397;28;20072;-47
2022/06/18 11:09:37;;;;;;;15.50;4.93;;;;;;;;;;5019598;28;20565;-46
2022/06/18 11:12:18;;;;;;;11.95;4.45;;;;;;;;;;5011002;28;20083;-50
2022/06/18 11:14:44;;;;;;;9.60;4.80;;;;;;;;;;5011187;28;20025;-47
2022/06/18 11:17:28;;;;;;;8.85;4.35;;;;;;;;;;5019399;28;20037;-48
2022/06/18 11:20:05;;;;;;;12.30;4.20;;;;;;;;;;5016828;28;20116;-47
2022/06/18 11:22:31;;;;;;;9.82;3.70;;;;;;;;;;5016306;28;20029;-47
2022/06/18 11:25:03;;;;;;;14.38;4.78;;;;;;;;;;5019264;28;20080;-47
2022/06/18 11:27:34;;;;;;;7.50;3.85;;;;;;;;;;5014134;28;20040;-45
2022/06/18 11:30:09;;;;;;;10.20;4.40;;;;;;;;;;5019427;28;20318;-46
2022/06/18 11:32:41;;;;;;;14.30;4.50;;;;;;;;;;5014734;28;20030;-46
2022/06/18 11:35:30;;;;;;;9.20;3.95;;;;;;;;;;5020019;28;20115;-46
2022/06/18 11:38:02;;;;;;;9.23;4.20;;;;;;;;;;5019359;28;20044;-45
2022/06/18 11:40:29;;;;;;;6.38;3.88;;;;;;;;;;5032330;28;20796;-44
2022/06/18 11:42:59;;;;;;;12.57;4.68;;;;;;;;;;5023362;28;20042;-49
2022/06/18 11:45:39;;;;;;;11.27;4.53;;;;;;;;;;5018858;28;20083;-44
2022/06/18 11:48:18;;;;;;;6.50;4.10;;;;;;;;;;5015073;28;20071;-45
2022/06/18 11:50:54;;;;;;;15.88;4.32;;;;;;;;;;5031148;28;20053;-44
2022/06/18 11:53:43;;;;;;;8.20;4.03;;;;;;;;;;5031478;28;20034;-48
2022/06/18 11:56:21;;;;;;;17.75;4.68;;;;;;;;;;5029149;28;20041;-44
2022/06/18 11:58:58;;;;;;;8.38;4.32;;;;;;;;;;5036764;28;20033;-46
2022/06/18 12:01:30;;;;;;;15.23;4.63;;;;;;;;;;5022540;28;20020;-46
2022/06/18 12:04:26;;;;;;;17.38;4.90;;;;;;;;;;5030714;28;20025;-46
2022/06/18 12:07:03;;;;;;;8.93;4.60;;;;;;;;;;5029389;28;20033;-47
2022/06/18 12:09:31;;;;;;;10.35;4.30;;;;;;;;;;5035137;28;20060;-45
2022/06/18 12:12:10;;;;;;;12.65;4.20;;;;;;;;;;5023341;28;20382;-45
2022/06/18 12:14:41;;;;;;;12.43;4.15;;;;;;;;;;5031788;28;20378;-45
2022/06/18 12:17:17;;;;;;;9.95;4.13;;;;;;;;;;5030946;28;20025;-48
2022/06/18 12:20:07;;;;;;;8.00;3.85;;;;;;;;;;5038092;28;20029;-50
2022/06/18 12:22:39;;;;;;;6.40;3.80;;;;;;;;;;5035193;28;20501;-47
2022/06/18 12:25:26;;;;;;;12.43;4.15;;;;;;;;;;5025016;28;20046;-45
2022/06/18 12:28:10;;;;;;;9.23;3.55;;;;;;;;;;5030912;28;20460;-48
2022/06/18 12:30:58;;;;;;;10.50;4.35;;;;;;;;;;5034895;28;20029;-47
2022/06/18 12:33:48;;;;;;;19.08;4.93;;;;;;;;;;5027594;28;20044;-46
2022/06/18 12:36:27;;;;;;;11.40;4.78;;;;;;;;;;5026027;28;20040;-46
2022/06/18 12:39:23;;;;;;;6.35;3.90;;;;;;;;;;5031964;28;20580;-51
2022/06/18 12:42:16;;;;;;;15.10;4.85;;;;;;;;;;5025852;28;20094;-45
2022/06/18 12:45:02;;;;;;;12.13;4.57;;;;;;;;;;5027727;28;20481;-48
2022/06/18 12:47:58;;;;;;;8.23;4.50;;;;;;;;;;5034256;28;20033;-50
2022/06/18 12:50:27;;;;;;;11.35;4.43;;;;;;;;;;5033712;28;20389;-46
2022/06/18 12:53:11;;;;;;;11.98;4.40;;;;;;;;;;5032434;28;20028;-47
2022/06/18 12:55:48;;;;;;;13.90;5.00;;;;;;;;;;5024918;28;20127;-45
2022/06/18 12:58:26;;;;;;;6.85;4.63;;;;;;;;;;5025644;28;20522;-44
2022/06/18 13:00:59;;;;;;;11.23;4.57;;;;;;;;;;5024630;28;20158;-44
2022/06/18 13:03:30;;;;;;;7.93;4.90;;;;;;;;;;5029627;28;20021;-45
2022/06/18 13:06:11;;;;;;;8.75;4.45;;;;;;;;;;5038102;28;20124;-46
2022/06/18 13:09:14;;;;;;;10.73;4.35;;;;;;;;;;5029459;28;20029;-44
2022/06/18 13:11:54;;;;;;;14.30;4.93;;;;;;;;;;5023450;28;20034;-46
2022/06/18 13:14:43;;;;;;;10.02;4.53;;;;;;;;;;5027265;28;20102;-44
2022/06/18 13:17:18;;;;;;;13.18;4.32;;;;;;;;;;5028445;28;20033;-44
2022/06/18 13:19:53;;;;;;;14.13;4.50;;;;;;;;;;5033949;28;20035;-46
2022/06/18 13:22:19;;;;;;;11.90;4.43;;;;;;;;;;5030228;28;20021;-44
2022/06/18 13:28:10;;;;;;;4.45;3.60;;;;;;;;;;5034887;28;20644;-44
2022/06/18 13:30:48;;;;;;;9.65;6.20;;;;;;;;;;5034274;28;20033;-44
2022/06/18 13:33:31;;;;;;;8.63;4.38;;;;;;;;;;5030485;28;20085;-44
2022/06/18 13:36:03;;;;;;;6.00;4.10;;;;;;;;;;5035285;28;20029;-45
2022/06/18 13:38:45;;;;;;;7.13;4.68;;;;;;;;;;5030583;28;20053;-45
2022/06/18 13:41:31;;;;;;;;;;;;;;;;;;5032702;28;20037;-44
2022/06/18 13:44:28;;;;;;;12.52;4.47;;;;;;;;;;5032991;28;19936;-46
2022/06/18 13:47:14;;;;;;;8.25;4.47;;;;;;;;;;5032812;28;20045;-45
2022/06/18 13:50:07;;;;;;;14.02;4.35;;;;;;;;;;5031926;28;20028;-44
2022/06/18 13:52:42;;;;;;;18.20;4.47;;;;;;;;;;5034742;28;20029;-46
2022/06/18 13:55:09;;;;;;;11.25;4.60;;;;;;;;;;5025989;28;20571;-45
2022/06/18 13:57:47;;;;;;;9.70;4.43;;;;;;;;;;5033169;28;20033;-46
2022/06/18 14:00:25;;;;;;;11.32;4.50;;;;;;;;;;5030709;28;20091;-45
2022/06/18 14:03:02;;;;;;;14.57;4.88;;;;;;;;;;5028916;28;20025;-44
2022/06/18 14:05:41;;;;;;;12.75;4.47;;;;;;;;;;5030399;28;20083;-47
2022/06/18 14:08:20;;;;;;;10.15;4.43;;;;;;;;;;5023175;28;20038;-47
2022/06/18 14:10:46;;;;;;;13.35;4.43;;;;;;;;;;5032988;28;20029;-46
2022/06/18 14:13:14;;;;;;;25.98;5.15;;;;;;;;;;5025708;28;20527;-44
2022/06/18 14:15:52;;;;;;;17.10;4.55;;;;;;;;;;5032676;28;20036;-45
2022/06/18 14:18:20;;;;;;;21.48;5.15;;;;;;;;;;5032229;28;20462;-45
2022/06/18 14:20:56;;;;;;;15.10;4.18;;;;;;;;;;5030031;28;20483;-45
2022/06/18 14:23:27;;;;;;;18.75;4.65;;;;;;;;;;5027235;28;20033;-45
2022/06/18 14:25:56;;;;;;;11.35;4.50;;;;;;;;;;5027459;28;20060;-44
2022/06/18 14:28:27;;;;;;;16.17;4.60;;;;;;;;;;5039379;28;20040;-46
2022/06/18 14:31:10;;;;;;;14.60;4.63;;;;;;;;;;5024063;28;20036;-44
2022/06/18 14:33:58;;;;;;;7.35;4.30;;;;;;;;;;5027426;28;20032;-45
2022/06/18 14:36:29;;;;;;;11.98;4.22;;;;;;;;;;5032524;28;20029;-44
2022/06/18 14:38:58;;;;;;;13.77;4.95;;;;;;;;;;5031533;28;20090;-44
2022/06/18 14:41:37;;;;;;;9.98;4.15;;;;;;;;;;5022054;28;20076;-45
2022/06/18 14:44:28;;;;;;;14.23;4.20;;;;;;;;;;5031402;28;20032;-44
2022/06/18 14:46:54;;;;;;;;;;;;;;;;;;5030296;28;20056;-45
2022/06/18 14:49:25;;;;;;;11.80;4.40;;;;;;;;;;5023823;28;20267;-44
2022/06/18 14:51:51;;;;;;;;;;;;;;;;;;5016134;28;20042;-45
2022/06/18 14:54:44;;;;;;;7.28;4.13;;;;;;;;;;5025841;28;19945;-46
2022/06/18 14:57:24;;;;;;;11.05;4.00;;;;;;;;;;5011031;28;20044;-45
2022/06/18 15:00:14;;;;;;;7.28;3.70;;;;;;;;;;5031706;28;20036;-44
2022/06/18 15:03:14;;;;;;;19.88;5.10;;;;;;;;;;5027536;28;20595;-45
2022/06/18 15:05:41;;;;;;;13.05;4.50;;;;;;;;;;5022577;28;20049;-44
2022/06/18 15:08:13;;;;;;;15.77;4.50;;;;;;;;;;5020731;28;20478;-44
2022/06/18 15:10:45;;;;;;;18.83;4.45;;;;;;;;;;5025793;28;20033;-48
2022/06/18 15:13:11;;;;;;;9.85;4.75;;;;;;;;;;5022996;28;20033;-45
2022/06/18 15:16:26;;;;;;;12.52;4.72;;;;;;;;;;5014419;28;20021;-45
2022/06/18 15:21:18;;;;;;;12.27;4.45;;;;;;;;;;5016847;28;20044;-44
2022/06/18 15:26:16;;;;;;;8.38;4.22;;;;;;;;;;5024700;28;20053;-46
2022/06/18 15:28:45;;;;;;;14.32;4.50;;;;;;;;;;5018951;28;20036;-44